PWSweather.com
Personal Weather Stations
Station Observations
KCAOCEAN4
Jeffries Ranch, Oceanside, CA 92057

Jeffries RanchOceanside, CA 92057

Lat: 33.2463208, Lon: -117.25335080000002

Elevation: 207

Station Type: Davis Vantage Vue

jeffriesranchweather.com

High Low Average
Temperature 73.6°F23.1°C 63.0°F17.2°C 67.5°F19.7°C
Dew Point 60.8°F16.0°C 57.4°F14.1°C 59.2°F15.1°C
Winds 6.9 mph 11.1 kmh Calm Calm 3.0 mph S4.8 kmh S
Wind Gusts 15.0 mph24.1 kmh -- 6.0 mph9.7 kmh
Humidity 89% 59% 75%
Pressure 29.82 in1009.8 mb 29.68 in1005.1 mb -
Precipitation 0.00 in0.0 mm - -
Hour Temp Dew Point Humidity Winds Wind Gusts Pressure Precip Precip Rate Daily Precip Total
12:06 AM 61.3°F16.3°C 58.5°F14.7°C 90% 2.0 mph NE3.2 kmh NE 4.0 mph6.4 kmh 29.81 in1009.5 mb 0.00 in0.0 mm 0.00 in0.0 mm 0.00 in0.0 mm
12:16 AM 61.5°F16.4°C 58.6°F14.8°C 90% 2.0 mph ENE3.2 kmh ENE 5.0 mph8.0 kmh 29.80 in1009.1 mb 0.00 in0.0 mm 0.00 in0.0 mm 0.00 in0.0 mm
12:26 AM 61.9°F16.6°C 59.0°F15.0°C 90% 2.0 mph NE3.2 kmh NE 6.0 mph9.7 kmh 29.80 in1009.1 mb 0.00 in0.0 mm 0.00 in0.0 mm 0.00 in0.0 mm
12:36 AM 62.1°F16.7°C 59.2°F15.1°C 90% 2.0 mph NE3.2 kmh NE 4.9 mph7.9 kmh 29.80 in1009.1 mb 0.00 in0.0 mm 0.00 in0.0 mm 0.00 in0.0 mm
12:46 AM 62.4°F16.9°C 59.2°F15.1°C 89% 2.0 mph ENE3.2 kmh ENE 4.9 mph7.9 kmh 29.80 in1009.1 mb 0.00 in0.0 mm 0.00 in0.0 mm 0.00 in0.0 mm
12:56 AM 62.8°F17.1°C 59.5°F15.3°C 89% Calm Calm 3.0 mph4.8 kmh 29.80 in1009.1 mb 0.00 in0.0 mm 0.00 in0.0 mm 0.00 in0.0 mm
01:06 AM 63.0°F17.2°C 59.7°F15.4°C 89% 0.9 mph E1.4 kmh E 3.0 mph4.8 kmh 29.80 in1009.1 mb 0.00 in0.0 mm 0.00 in0.0 mm 0.00 in0.0 mm
01:16 AM 63.1°F17.3°C 59.5°F15.3°C 88% 0.9 mph NE1.4 kmh NE 3.0 mph4.8 kmh 29.79 in1008.8 mb 0.00 in0.0 mm 0.00 in0.0 mm 0.00 in0.0 mm
01:26 AM 63.3°F17.4°C 59.7°F15.4°C 88% 0.9 mph NE1.4 kmh NE 2.9 mph4.7 kmh 29.80 in1009.1 mb 0.00 in0.0 mm 0.00 in0.0 mm 0.00 in0.0 mm
01:36 AM 63.5°F17.5°C 59.9°F15.5°C 88% Calm Calm 0.9 mph1.4 kmh 29.79 in1008.8 mb 0.00 in0.0 mm 0.00 in0.0 mm 0.00 in0.0 mm
01:46 AM 63.7°F17.6°C 60.1°F15.6°C 88% Calm Calm 0.9 mph1.4 kmh 29.79 in1008.8 mb 0.00 in0.0 mm 0.00 in0.0 mm 0.00 in0.0 mm
01:56 AM 63.9°F17.7°C 59.9°F15.5°C 87% Calm Calm 1.0 mph1.6 kmh 29.79 in1008.8 mb 0.00 in0.0 mm 0.00 in0.0 mm 0.00 in0.0 mm
02:06 AM 63.9°F17.7°C 59.9°F15.5°C 87% Calm Calm -- 29.79 in1008.8 mb 0.00 in0.0 mm 0.00 in0.0 mm 0.00 in0.0 mm
02:16 AM 63.9°F17.7°C 59.9°F15.5°C 87% Calm Calm -- 29.79 in1008.8 mb 0.00 in0.0 mm 0.00 in0.0 mm 0.00 in0.0 mm
02:26 AM 64.0°F17.8°C 60.1°F15.6°C 87% Calm Calm 1.0 mph1.6 kmh 29.78 in1008.5 mb 0.00 in0.0 mm 0.00 in0.0 mm 0.00 in0.0 mm
02:36 AM 64.0°F17.8°C 60.1°F15.6°C 87% Calm Calm 0.9 mph1.4 kmh 29.78 in1008.5 mb 0.00 in0.0 mm 0.00 in0.0 mm 0.00 in0.0 mm
02:46 AM 64.2°F17.9°C 59.9°F15.5°C 86% Calm Calm -- 29.78 in1008.5 mb 0.00 in0.0 mm 0.00 in0.0 mm 0.00 in0.0 mm
02:56 AM 64.6°F18.1°C 59.9°F15.5°C 85% Calm Calm 2.0 mph3.2 kmh 29.78 in1008.5 mb 0.00 in0.0 mm 0.00 in0.0 mm 0.00 in0.0 mm
03:06 AM 64.9°F18.3°C 59.7°F15.4°C 83% 0.9 mph ESE1.4 kmh ESE 4.0 mph6.4 kmh 29.77 in1008.1 mb 0.00 in0.0 mm 0.00 in0.0 mm 0.00 in0.0 mm
03:16 AM 65.1°F18.4°C 59.5°F15.3°C 82% 0.9 mph E1.4 kmh E 2.9 mph4.7 kmh 29.77 in1008.1 mb 0.00 in0.0 mm 0.00 in0.0 mm 0.00 in0.0 mm
03:26 AM 65.3°F18.5°C 59.7°F15.4°C 82% 0.9 mph E1.4 kmh E 2.9 mph4.7 kmh 29.77 in1008.1 mb 0.00 in0.0 mm 0.00 in0.0 mm 0.00 in0.0 mm
03:36 AM 65.5°F18.6°C 59.5°F15.3°C 81% 0.9 mph E1.4 kmh E 4.0 mph6.4 kmh 29.78 in1008.5 mb 0.00 in0.0 mm 0.00 in0.0 mm 0.00 in0.0 mm
03:46 AM 65.5°F18.6°C 59.5°F15.3°C 81% 2.0 mph SE3.2 kmh SE 4.0 mph6.4 kmh 29.77 in1008.1 mb 0.00 in0.0 mm 0.00 in0.0 mm 0.00 in0.0 mm
03:56 AM 65.3°F18.5°C 59.4°F15.2°C 81% 0.9 mph E1.4 kmh E 2.9 mph4.7 kmh 29.77 in1008.1 mb 0.00 in0.0 mm 0.00 in0.0 mm 0.00 in0.0 mm
04:06 AM 65.3°F18.5°C 59.4°F15.2°C 81% 2.0 mph ESE3.2 kmh ESE 4.0 mph6.4 kmh 29.77 in1008.1 mb 0.00 in0.0 mm 0.00 in0.0 mm 0.00 in0.0 mm
04:16 AM 65.1°F18.4°C 59.2°F15.1°C 81% 0.9 mph ESE1.4 kmh ESE 4.9 mph7.9 kmh 29.77 in1008.1 mb 0.00 in0.0 mm 0.00 in0.0 mm 0.00 in0.0 mm
04:26 AM 64.9°F18.3°C 59.0°F15.0°C 81% 2.9 mph ESE4.7 kmh ESE 8.1 mph13.0 kmh 29.77 in1008.1 mb 0.00 in0.0 mm 0.00 in0.0 mm 0.00 in0.0 mm
04:36 AM 64.9°F18.3°C 58.6°F14.8°C 80% 2.0 mph E3.2 kmh E 4.0 mph6.4 kmh 29.77 in1008.1 mb 0.00 in0.0 mm 0.00 in0.0 mm 0.00 in0.0 mm
04:46 AM 64.8°F18.2°C 58.5°F14.7°C 80% 2.0 mph E3.2 kmh E 4.9 mph7.9 kmh 29.77 in1008.1 mb 0.00 in0.0 mm 0.00 in0.0 mm 0.00 in0.0 mm
04:56 AM 64.6°F18.1°C 58.3°F14.6°C 80% 0.9 mph SE1.4 kmh SE 2.9 mph4.7 kmh 29.77 in1008.1 mb 0.00 in0.0 mm 0.00 in0.0 mm 0.00 in0.0 mm
05:06 AM 64.4°F18.0°C 58.1°F14.5°C 80% 2.0 mph ESE3.2 kmh ESE 4.9 mph7.9 kmh 29.77 in1008.1 mb 0.00 in0.0 mm 0.00 in0.0 mm 0.00 in0.0 mm
05:16 AM 64.4°F18.0°C 58.1°F14.5°C 80% 2.0 mph E3.2 kmh E 4.0 mph6.4 kmh 29.77 in1008.1 mb 0.00 in0.0 mm 0.00 in0.0 mm 0.00 in0.0 mm
05:26 AM 64.4°F18.0°C 58.1°F14.5°C 80% 2.0 mph SE3.2 kmh SE 5.0 mph8.0 kmh 29.77 in1008.1 mb 0.00 in0.0 mm 0.00 in0.0 mm 0.00 in0.0 mm
05:36 AM 64.2°F17.9°C 58.3°F14.6°C 81% 0.9 mph SSE1.4 kmh SSE 4.0 mph6.4 kmh 29.77 in1008.1 mb 0.00 in0.0 mm 0.00 in0.0 mm 0.00 in0.0 mm
05:46 AM 64.2°F17.9°C 57.9°F14.4°C 80% 0.9 mph E1.4 kmh E 4.9 mph7.9 kmh 29.77 in1008.1 mb 0.00 in0.0 mm 0.00 in0.0 mm 0.00 in0.0 mm
05:56 AM 64.2°F17.9°C 57.9°F14.4°C 80% 2.0 mph E3.2 kmh E 4.9 mph7.9 kmh 29.78 in1008.5 mb 0.00 in0.0 mm 0.00 in0.0 mm 0.00 in0.0 mm
06:06 AM 64.2°F17.9°C 58.3°F14.6°C 81% 0.9 mph E1.4 kmh E 2.9 mph4.7 kmh 29.78 in1008.5 mb 0.00 in0.0 mm 0.00 in0.0 mm 0.00 in0.0 mm
06:16 AM 64.0°F17.8°C 58.1°F14.5°C 81% 0.9 mph ESE1.4 kmh ESE 4.0 mph6.4 kmh 29.78 in1008.5 mb 0.00 in0.0 mm 0.00 in0.0 mm 0.00 in0.0 mm
06:26 AM 64.0°F17.8°C 58.1°F14.5°C 81% 0.9 mph E1.4 kmh E 4.0 mph6.4 kmh 29.78 in1008.5 mb 0.00 in0.0 mm 0.00 in0.0 mm 0.00 in0.0 mm
06:36 AM 64.0°F17.8°C 58.1°F14.5°C 81% 2.0 mph E3.2 kmh E 5.0 mph8.0 kmh 29.78 in1008.5 mb 0.00 in0.0 mm 0.00 in0.0 mm 0.00 in0.0 mm
06:46 AM 63.9°F17.7°C 57.9°F14.4°C 81% 2.0 mph SE3.2 kmh SE 4.0 mph6.4 kmh 29.78 in1008.5 mb 0.00 in0.0 mm 0.00 in0.0 mm 0.00 in0.0 mm
06:56 AM 63.9°F17.7°C 57.9°F14.4°C 81% Calm Calm 2.0 mph3.2 kmh 29.78 in1008.5 mb 0.00 in0.0 mm 0.00 in0.0 mm 0.00 in0.0 mm
07:06 AM 64.0°F17.8°C 57.7°F14.3°C 80% 2.0 mph E3.2 kmh E 4.0 mph6.4 kmh 29.78 in1008.5 mb 0.00 in0.0 mm 0.00 in0.0 mm 0.00 in0.0 mm
07:16 AM 64.0°F17.8°C 57.7°F14.3°C 80% 2.0 mph E3.2 kmh E 4.0 mph6.4 kmh 29.78 in1008.5 mb 0.00 in0.0 mm 0.00 in0.0 mm 0.00 in0.0 mm
07:26 AM 64.0°F17.8°C 57.7°F14.3°C 80% 2.0 mph ESE3.2 kmh ESE 5.0 mph8.0 kmh 29.79 in1008.8 mb 0.00 in0.0 mm 0.00 in0.0 mm 0.00 in0.0 mm
07:36 AM 64.2°F17.9°C 57.9°F14.4°C 80% 2.0 mph ESE3.2 kmh ESE 4.9 mph7.9 kmh 29.79 in1008.8 mb 0.00 in0.0 mm 0.00 in0.0 mm 0.00 in0.0 mm
07:46 AM 64.4°F18.0°C 57.7°F14.3°C 79% 0.9 mph E1.4 kmh E 2.9 mph4.7 kmh 29.79 in1008.8 mb 0.00 in0.0 mm 0.00 in0.0 mm 0.00 in0.0 mm
07:56 AM 64.6°F18.1°C 57.9°F14.4°C 79% 0.9 mph E1.4 kmh E 2.9 mph4.7 kmh 29.80 in1009.1 mb 0.00 in0.0 mm 0.00 in0.0 mm 0.00 in0.0 mm
08:06 AM 64.8°F18.2°C 57.7°F14.3°C 78% 2.0 mph ENE3.2 kmh ENE 4.9 mph7.9 kmh 29.80 in1009.1 mb 0.00 in0.0 mm 0.00 in0.0 mm 0.00 in0.0 mm
08:16 AM 64.8°F18.2°C 57.7°F14.3°C 78% 2.0 mph E3.2 kmh E 4.9 mph7.9 kmh 29.81 in1009.5 mb 0.00 in0.0 mm 0.00 in0.0 mm 0.00 in0.0 mm
08:26 AM 64.9°F18.3°C 57.6°F14.2°C 77% 2.0 mph N3.2 kmh N 6.0 mph9.7 kmh 29.81 in1009.5 mb 0.00 in0.0 mm 0.00 in0.0 mm 0.00 in0.0 mm
08:36 AM 65.3°F18.5°C 57.6°F14.2°C 76% 0.9 mph NE1.4 kmh NE 2.9 mph4.7 kmh 29.82 in1009.8 mb 0.00 in0.0 mm 0.00 in0.0 mm 0.00 in0.0 mm
08:46 AM 65.7°F18.7°C 57.9°F14.4°C 76% 0.9 mph ESE1.4 kmh ESE 2.9 mph4.7 kmh 29.81 in1009.5 mb 0.00 in0.0 mm 0.00 in0.0 mm 0.00 in0.0 mm
08:56 AM 65.7°F18.7°C 57.6°F14.2°C 75% 0.9 mph NE1.4 kmh NE 5.0 mph8.0 kmh 29.81 in1009.5 mb 0.00 in0.0 mm 0.00 in0.0 mm 0.00 in0.0 mm
09:06 AM 65.8°F18.8°C 57.4°F14.1°C 74% 2.9 mph E4.7 kmh E 6.9 mph11.1 kmh 29.80 in1009.1 mb 0.00 in0.0 mm 0.00 in0.0 mm 0.00 in0.0 mm
09:16 AM 66.4°F19.1°C 57.4°F14.1°C 73% 2.0 mph ENE3.2 kmh ENE 6.0 mph9.7 kmh 29.81 in1009.5 mb 0.00 in0.0 mm 0.00 in0.0 mm 0.00 in0.0 mm
09:26 AM 67.1°F19.5°C 58.1°F14.5°C 73% 0.9 mph SW1.4 kmh SW 6.0 mph9.7 kmh 29.81 in1009.5 mb 0.00 in0.0 mm 0.00 in0.0 mm 0.00 in0.0 mm
09:36 AM 67.3°F19.6°C 58.3°F14.6°C 73% 2.0 mph SE3.2 kmh SE 7.0 mph11.3 kmh 29.81 in1009.5 mb 0.00 in0.0 mm 0.00 in0.0 mm 0.00 in0.0 mm
09:46 AM 68.4°F20.2°C 58.6°F14.8°C 71% 0.9 mph NNW1.4 kmh NNW 4.0 mph6.4 kmh 29.81 in1009.5 mb 0.00 in0.0 mm 0.00 in0.0 mm 0.00 in0.0 mm
09:56 AM 68.4°F20.2°C 58.3°F14.6°C 70% 4.0 mph S6.4 kmh S 10.1 mph16.3 kmh 29.81 in1009.5 mb 0.00 in0.0 mm 0.00 in0.0 mm 0.00 in0.0 mm
10:06 AM 68.9°F20.5°C 57.9°F14.4°C 68% 2.0 mph WSW3.2 kmh WSW 4.9 mph7.9 kmh 29.81 in1009.5 mb 0.00 in0.0 mm 0.00 in0.0 mm 0.00 in0.0 mm
10:16 AM 68.7°F20.4°C 58.1°F14.5°C 69% 2.0 mph SE3.2 kmh SE 6.9 mph11.1 kmh 29.81 in1009.5 mb 0.00 in0.0 mm 0.00 in0.0 mm 0.00 in0.0 mm
10:26 AM 69.4°F20.8°C 57.6°F14.2°C 66% 2.0 mph SE3.2 kmh SE 8.1 mph13.0 kmh 29.80 in1009.1 mb 0.00 in0.0 mm 0.00 in0.0 mm 0.00 in0.0 mm
10:36 AM 69.8°F21.0°C 58.3°F14.6°C 67% 2.9 mph SE4.7 kmh SE 8.1 mph13.0 kmh 29.80 in1009.1 mb 0.00 in0.0 mm 0.00 in0.0 mm 0.00 in0.0 mm
10:46 AM 71.1°F21.7°C 58.3°F14.6°C 64% 2.0 mph SE3.2 kmh SE 6.0 mph9.7 kmh 29.79 in1008.8 mb 0.00 in0.0 mm 0.00 in0.0 mm 0.00 in0.0 mm
10:56 AM 71.1°F21.7°C 58.3°F14.6°C 64% 2.9 mph SSW4.7 kmh SSW 8.1 mph13.0 kmh 29.79 in1008.8 mb 0.00 in0.0 mm 0.00 in0.0 mm 0.00 in0.0 mm
11:06 AM 71.8°F22.1°C 58.5°F14.7°C 63% 2.9 mph WSW4.7 kmh WSW 6.9 mph11.1 kmh 29.79 in1008.8 mb 0.00 in0.0 mm 0.00 in0.0 mm 0.00 in0.0 mm
11:16 AM 71.8°F22.1°C 58.1°F14.5°C 62% 4.0 mph WSW6.4 kmh WSW 10.1 mph16.3 kmh 29.78 in1008.5 mb 0.00 in0.0 mm 0.00 in0.0 mm 0.00 in0.0 mm
11:26 AM 72.0°F22.2°C 58.3°F14.6°C 62% 2.9 mph SW4.7 kmh SW 8.1 mph13.0 kmh 29.78 in1008.5 mb 0.00 in0.0 mm 0.00 in0.0 mm 0.00 in0.0 mm
11:36 AM 72.9°F22.7°C 58.1°F14.5°C 60% 4.0 mph WSW6.4 kmh WSW 13.0 mph20.9 kmh 29.78 in1008.5 mb 0.00 in0.0 mm 0.00 in0.0 mm 0.00 in0.0 mm
11:46 AM 73.6°F23.1°C 58.3°F14.6°C 59% 2.0 mph NW3.2 kmh NW 8.1 mph13.0 kmh 29.78 in1008.5 mb 0.00 in0.0 mm 0.00 in0.0 mm 0.00 in0.0 mm
11:56 AM 72.7°F22.6°C 60.3°F15.7°C 65% 4.9 mph NW7.9 kmh NW 12.1 mph19.5 kmh 29.78 in1008.5 mb 0.00 in0.0 mm 0.00 in0.0 mm 0.00 in0.0 mm
12:06 PM 72.7°F22.6°C 60.6°F15.9°C 66% 6.0 mph W9.7 kmh W 12.1 mph19.5 kmh 29.78 in1008.5 mb 0.00 in0.0 mm 0.00 in0.0 mm 0.00 in0.0 mm
12:16 PM 72.3°F22.4°C 60.8°F16.0°C 67% 6.9 mph WNW11.1 kmh WNW 13.0 mph20.9 kmh 29.78 in1008.5 mb 0.00 in0.0 mm 0.00 in0.0 mm 0.00 in0.0 mm
12:26 PM 72.0°F22.2°C 60.4°F15.8°C 67% 6.0 mph WNW9.7 kmh WNW 13.0 mph20.9 kmh 29.77 in1008.1 mb 0.00 in0.0 mm 0.00 in0.0 mm 0.00 in0.0 mm
12:36 PM 72.5°F22.5°C 60.4°F15.8°C 66% 4.9 mph WSW7.9 kmh WSW 10.1 mph16.3 kmh 29.77 in1008.1 mb 0.00 in0.0 mm 0.00 in0.0 mm 0.00 in0.0 mm
12:46 PM 72.1°F22.3°C 60.6°F15.9°C 67% 6.0 mph WSW9.7 kmh WSW 13.0 mph20.9 kmh 29.76 in1007.8 mb 0.00 in0.0 mm 0.00 in0.0 mm 0.00 in0.0 mm
12:56 PM 72.1°F22.3°C 59.7°F15.4°C 65% 6.9 mph WSW11.1 kmh WSW 14.1 mph22.7 kmh 29.76 in1007.8 mb 0.00 in0.0 mm 0.00 in0.0 mm 0.00 in0.0 mm
01:06 PM 72.9°F22.7°C 60.4°F15.8°C 65% 4.0 mph WSW6.4 kmh WSW 11.0 mph17.7 kmh 29.76 in1007.8 mb 0.00 in0.0 mm 0.00 in0.0 mm 0.00 in0.0 mm
01:16 PM 72.1°F22.3°C 60.6°F15.9°C 67% 6.0 mph WNW9.7 kmh WNW 13.0 mph20.9 kmh 29.76 in1007.8 mb 0.00 in0.0 mm 0.00 in0.0 mm 0.00 in0.0 mm
01:26 PM 71.8°F22.1°C 60.3°F15.7°C 67% 6.0 mph W9.7 kmh W 15.0 mph24.1 kmh 29.75 in1007.5 mb 0.00 in0.0 mm 0.00 in0.0 mm 0.00 in0.0 mm
01:36 PM 71.8°F22.1°C 60.3°F15.7°C 67% 6.9 mph W11.1 kmh W 14.1 mph22.7 kmh 29.75 in1007.5 mb 0.00 in0.0 mm 0.00 in0.0 mm 0.00 in0.0 mm
01:46 PM 72.1°F22.3°C 60.1°F15.6°C 66% 6.0 mph NW9.7 kmh NW 11.0 mph17.7 kmh 29.74 in1007.1 mb 0.00 in0.0 mm 0.00 in0.0 mm 0.00 in0.0 mm
01:56 PM 71.6°F22.0°C 60.1°F15.6°C 67% 6.0 mph WSW9.7 kmh WSW 11.0 mph17.7 kmh 29.74 in1007.1 mb 0.00 in0.0 mm 0.00 in0.0 mm 0.00 in0.0 mm
02:06 PM 71.2°F21.8°C 59.7°F15.4°C 67% 6.0 mph WSW9.7 kmh WSW 12.1 mph19.5 kmh 29.74 in1007.1 mb 0.00 in0.0 mm 0.00 in0.0 mm 0.00 in0.0 mm
02:16 PM 72.1°F22.3°C 59.7°F15.4°C 65% 4.9 mph WSW7.9 kmh WSW 12.1 mph19.5 kmh 29.74 in1007.1 mb 0.00 in0.0 mm 0.00 in0.0 mm 0.00 in0.0 mm
02:26 PM 71.2°F21.8°C 59.7°F15.4°C 67% 4.9 mph S7.9 kmh S 12.1 mph19.5 kmh 29.73 in1006.8 mb 0.00 in0.0 mm 0.00 in0.0 mm 0.00 in0.0 mm
02:36 PM 72.0°F22.2°C 59.9°F15.5°C 66% 6.0 mph NW9.7 kmh NW 14.1 mph22.7 kmh 29.72 in1006.4 mb 0.00 in0.0 mm 0.00 in0.0 mm 0.00 in0.0 mm
02:46 PM 71.6°F22.0°C 59.2°F15.1°C 65% 6.0 mph S9.7 kmh S 14.1 mph22.7 kmh 29.72 in1006.4 mb 0.00 in0.0 mm 0.00 in0.0 mm 0.00 in0.0 mm
02:56 PM 72.5°F22.5°C 60.1°F15.6°C 65% 4.0 mph SSW6.4 kmh SSW 11.0 mph17.7 kmh 29.72 in1006.4 mb 0.00 in0.0 mm 0.00 in0.0 mm 0.00 in0.0 mm
03:06 PM 72.0°F22.2°C 59.5°F15.3°C 65% 4.9 mph SSW7.9 kmh SSW 8.9 mph14.3 kmh 29.71 in1006.1 mb 0.00 in0.0 mm 0.00 in0.0 mm 0.00 in0.0 mm
03:16 PM 71.8°F22.1°C 60.3°F15.7°C 67% 4.9 mph WNW7.9 kmh WNW 12.1 mph19.5 kmh 29.70 in1005.8 mb 0.00 in0.0 mm 0.00 in0.0 mm 0.00 in0.0 mm
03:26 PM 71.8°F22.1°C 59.7°F15.4°C 66% 4.9 mph WSW7.9 kmh WSW 12.1 mph19.5 kmh 29.70 in1005.8 mb 0.00 in0.0 mm 0.00 in0.0 mm 0.00 in0.0 mm
03:36 PM 72.3°F22.4°C 59.9°F15.5°C 65% 4.0 mph WNW6.4 kmh WNW 10.1 mph16.3 kmh 29.70 in1005.8 mb 0.00 in0.0 mm 0.00 in0.0 mm 0.00 in0.0 mm
03:46 PM 71.6°F22.0°C 59.7°F15.4°C 66% 6.0 mph WSW9.7 kmh WSW 11.0 mph17.7 kmh 29.70 in1005.8 mb 0.00 in0.0 mm 0.00 in0.0 mm 0.00 in0.0 mm
03:56 PM 71.4°F21.9°C 59.9°F15.5°C 67% 6.0 mph WNW9.7 kmh WNW 11.0 mph17.7 kmh 29.69 in1005.4 mb 0.00 in0.0 mm 0.00 in0.0 mm 0.00 in0.0 mm
04:06 PM 71.2°F21.8°C 59.7°F15.4°C 67% 6.0 mph WSW9.7 kmh WSW 13.0 mph20.9 kmh 29.69 in1005.4 mb 0.00 in0.0 mm 0.00 in0.0 mm 0.00 in0.0 mm
04:16 PM 71.4°F21.9°C 59.5°F15.3°C 66% 4.9 mph WNW7.9 kmh WNW 11.0 mph17.7 kmh 29.69 in1005.4 mb 0.00 in0.0 mm 0.00 in0.0 mm 0.00 in0.0 mm
04:27 PM 70.9°F21.6°C 59.7°F15.4°C 68% 6.0 mph SW9.7 kmh SW 11.0 mph17.7 kmh 29.69 in1005.4 mb 0.00 in0.0 mm 0.00 in0.0 mm 0.00 in0.0 mm
04:37 PM 70.7°F21.5°C 60.1°F15.6°C 69% 4.9 mph W7.9 kmh W 10.1 mph16.3 kmh 29.69 in1005.4 mb 0.00 in0.0 mm 0.00 in0.0 mm 0.00 in0.0 mm
04:47 PM 70.5°F21.4°C 59.9°F15.5°C 69% 6.0 mph WSW9.7 kmh WSW 11.0 mph17.7 kmh 29.69 in1005.4 mb 0.00 in0.0 mm 0.00 in0.0 mm 0.00 in0.0 mm
04:57 PM 70.5°F21.4°C 60.3°F15.7°C 70% 4.9 mph SSW7.9 kmh SSW 8.9 mph14.3 kmh 29.69 in1005.4 mb 0.00 in0.0 mm 0.00 in0.0 mm 0.00 in0.0 mm
05:07 PM 69.6°F20.9°C 59.7°F15.4°C 71% 6.9 mph WSW11.1 kmh WSW 11.0 mph17.7 kmh 29.69 in1005.4 mb 0.00 in0.0 mm 0.00 in0.0 mm 0.00 in0.0 mm
05:17 PM 69.3°F20.7°C 59.9°F15.5°C 72% 6.0 mph NW9.7 kmh NW 12.1 mph19.5 kmh 29.68 in1005.1 mb 0.00 in0.0 mm 0.00 in0.0 mm 0.00 in0.0 mm
05:27 PM 69.4°F20.8°C 60.1°F15.6°C 72% 4.0 mph SW6.4 kmh SW 8.1 mph13.0 kmh 29.68 in1005.1 mb 0.00 in0.0 mm 0.00 in0.0 mm 0.00 in0.0 mm
05:37 PM 68.7°F20.4°C 59.7°F15.4°C 73% 4.9 mph SW7.9 kmh SW 9.0 mph14.5 kmh 29.69 in1005.4 mb 0.00 in0.0 mm 0.00 in0.0 mm 0.00 in0.0 mm
05:47 PM 68.5°F20.3°C 59.9°F15.5°C 74% 4.0 mph W6.4 kmh W 8.1 mph13.0 kmh 29.68 in1005.1 mb 0.00 in0.0 mm 0.00 in0.0 mm 0.00 in0.0 mm
05:57 PM 68.4°F20.2°C 60.1°F15.6°C 75% 4.0 mph SW6.4 kmh SW 10.1 mph16.3 kmh 29.68 in1005.1 mb 0.00 in0.0 mm 0.00 in0.0 mm 0.00 in0.0 mm
06:07 PM 67.8°F19.9°C 59.9°F15.5°C 76% 2.9 mph WSW4.7 kmh WSW 8.1 mph13.0 kmh 29.68 in1005.1 mb 0.00 in0.0 mm 0.00 in0.0 mm 0.00 in0.0 mm
06:17 PM 67.3°F19.6°C 59.9°F15.5°C 77% 2.9 mph W4.7 kmh W 6.0 mph9.7 kmh 29.69 in1005.4 mb 0.00 in0.0 mm 0.00 in0.0 mm 0.00 in0.0 mm
06:27 PM 66.9°F19.4°C 59.9°F15.5°C 78% 2.9 mph W4.7 kmh W 8.1 mph13.0 kmh 29.70 in1005.8 mb 0.00 in0.0 mm 0.00 in0.0 mm 0.00 in0.0 mm
06:37 PM 66.7°F19.3°C 59.7°F15.4°C 78% 4.0 mph W6.4 kmh W 8.9 mph14.3 kmh 29.70 in1005.8 mb 0.00 in0.0 mm 0.00 in0.0 mm 0.00 in0.0 mm
06:47 PM 66.6°F19.2°C 59.9°F15.5°C 79% 4.0 mph NW6.4 kmh NW 8.9 mph14.3 kmh 29.69 in1005.4 mb 0.00 in0.0 mm 0.00 in0.0 mm 0.00 in0.0 mm
06:57 PM 66.6°F19.2°C 59.9°F15.5°C 79% 2.0 mph WNW3.2 kmh WNW 4.9 mph7.9 kmh 29.70 in1005.8 mb 0.00 in0.0 mm 0.00 in0.0 mm 0.00 in0.0 mm
07:07 PM 66.6°F19.2°C 59.9°F15.5°C 79% 2.0 mph WSW3.2 kmh WSW 4.9 mph7.9 kmh 29.69 in1005.4 mb 0.00 in0.0 mm 0.00 in0.0 mm 0.00 in0.0 mm
07:17 PM 66.4°F19.1°C 59.7°F15.4°C 79% 2.0 mph SSW3.2 kmh SSW 4.9 mph7.9 kmh 29.69 in1005.4 mb 0.00 in0.0 mm 0.00 in0.0 mm 0.00 in0.0 mm
07:27 PM 66.2°F19.0°C 59.9°F15.5°C 80% 0.9 mph WSW1.4 kmh WSW 2.9 mph4.7 kmh 29.69 in1005.4 mb 0.00 in0.0 mm 0.00 in0.0 mm 0.00 in0.0 mm
07:37 PM 66.4°F19.1°C 60.1°F15.6°C 80% 0.9 mph SW1.4 kmh SW 4.0 mph6.4 kmh 29.69 in1005.4 mb 0.00 in0.0 mm 0.00 in0.0 mm 0.00 in0.0 mm
07:47 PM 66.2°F19.0°C 59.5°F15.3°C 79% 2.9 mph S4.7 kmh S 6.0 mph9.7 kmh 29.70 in1005.8 mb 0.00 in0.0 mm 0.00 in0.0 mm 0.00 in0.0 mm
07:57 PM 66.2°F19.0°C 59.5°F15.3°C 79% 2.0 mph S3.2 kmh S 6.0 mph9.7 kmh 29.70 in1005.8 mb 0.00 in0.0 mm 0.00 in0.0 mm 0.00 in0.0 mm
08:07 PM 66.2°F19.0°C 59.5°F15.3°C 79% 2.0 mph WSW3.2 kmh WSW 5.0 mph8.0 kmh 29.70 in1005.8 mb 0.00 in0.0 mm 0.00 in0.0 mm 0.00 in0.0 mm
08:17 PM 66.2°F19.0°C 59.5°F15.3°C 79% 2.0 mph SW3.2 kmh SW 5.0 mph8.0 kmh 29.70 in1005.8 mb 0.00 in0.0 mm 0.00 in0.0 mm 0.00 in0.0 mm
08:27 PM 66.4°F19.1°C 59.7°F15.4°C 79% 2.0 mph WSW3.2 kmh WSW 4.9 mph7.9 kmh 29.70 in1005.8 mb 0.00 in0.0 mm 0.00 in0.0 mm 0.00 in0.0 mm
08:37 PM 66.4°F19.1°C 59.4°F15.2°C 78% 0.9 mph SE1.4 kmh SE 4.0 mph6.4 kmh 29.70 in1005.8 mb 0.00 in0.0 mm 0.00 in0.0 mm 0.00 in0.0 mm
08:47 PM 66.6°F19.2°C 59.5°F15.3°C 78% 0.9 mph SW1.4 kmh SW 6.0 mph9.7 kmh 29.71 in1006.1 mb 0.00 in0.0 mm 0.00 in0.0 mm 0.00 in0.0 mm
08:57 PM 66.6°F19.2°C 59.5°F15.3°C 78% 2.0 mph SW3.2 kmh SW 4.9 mph7.9 kmh 29.71 in1006.1 mb 0.00 in0.0 mm 0.00 in0.0 mm 0.00 in0.0 mm
09:07 PM 66.6°F19.2°C 59.5°F15.3°C 78% 2.0 mph S3.2 kmh S 6.9 mph11.1 kmh 29.71 in1006.1 mb 0.00 in0.0 mm 0.00 in0.0 mm 0.00 in0.0 mm
09:17 PM 66.6°F19.2°C 59.2°F15.1°C 77% 2.9 mph SSE4.7 kmh SSE 4.9 mph7.9 kmh 29.71 in1006.1 mb 0.00 in0.0 mm 0.00 in0.0 mm 0.00 in0.0 mm
09:27 PM 66.6°F19.2°C 59.2°F15.1°C 77% 2.9 mph S4.7 kmh S 7.0 mph11.3 kmh 29.71 in1006.1 mb 0.00 in0.0 mm 0.00 in0.0 mm 0.00 in0.0 mm
09:37 PM 66.6°F19.2°C 59.2°F15.1°C 77% 0.9 mph WSW1.4 kmh WSW 4.0 mph6.4 kmh 29.71 in1006.1 mb 0.00 in0.0 mm 0.00 in0.0 mm 0.00 in0.0 mm
09:47 PM 66.6°F19.2°C 59.2°F15.1°C 77% 0.9 mph WSW1.4 kmh WSW 4.9 mph7.9 kmh 29.71 in1006.1 mb 0.00 in0.0 mm 0.00 in0.0 mm 0.00 in0.0 mm
09:57 PM 66.6°F19.2°C 59.2°F15.1°C 77% 0.9 mph SE1.4 kmh SE 4.0 mph6.4 kmh 29.71 in1006.1 mb 0.00 in0.0 mm 0.00 in0.0 mm 0.00 in0.0 mm
10:07 PM 66.6°F19.2°C 59.2°F15.1°C 77% 0.9 mph WSW1.4 kmh WSW 4.0 mph6.4 kmh 29.71 in1006.1 mb 0.00 in0.0 mm 0.00 in0.0 mm 0.00 in0.0 mm
10:17 PM 66.6°F19.2°C 58.8°F14.9°C 76% 2.9 mph S4.7 kmh S 7.0 mph11.3 kmh 29.71 in1006.1 mb 0.00 in0.0 mm 0.00 in0.0 mm 0.00 in0.0 mm
10:27 PM 66.6°F19.2°C 58.8°F14.9°C 76% 2.0 mph SSW3.2 kmh SSW 6.0 mph9.7 kmh 29.71 in1006.1 mb 0.00 in0.0 mm 0.00 in0.0 mm 0.00 in0.0 mm
10:37 PM 66.7°F19.3°C 59.0°F15.0°C 76% 2.0 mph SE3.2 kmh SE 4.9 mph7.9 kmh 29.71 in1006.1 mb 0.00 in0.0 mm 0.00 in0.0 mm 0.00 in0.0 mm
10:47 PM 66.7°F19.3°C 59.0°F15.0°C 76% 2.0 mph SE3.2 kmh SE 4.9 mph7.9 kmh 29.71 in1006.1 mb 0.00 in0.0 mm 0.00 in0.0 mm 0.00 in0.0 mm
10:57 PM 66.9°F19.4°C 59.2°F15.1°C 76% 0.9 mph SSE1.4 kmh SSE 4.0 mph6.4 kmh 29.71 in1006.1 mb 0.00 in0.0 mm 0.00 in0.0 mm 0.00 in0.0 mm
11:07 PM 66.9°F19.4°C 59.2°F15.1°C 76% 0.9 mph SW1.4 kmh SW 2.9 mph4.7 kmh 29.71 in1006.1 mb 0.00 in0.0 mm 0.00 in0.0 mm 0.00 in0.0 mm
11:17 PM 66.9°F19.4°C 59.2°F15.1°C 76% 0.9 mph SW1.4 kmh SW 4.0 mph6.4 kmh 29.71 in1006.1 mb 0.00 in0.0 mm 0.00 in0.0 mm 0.00 in0.0 mm
11:27 PM 66.7°F19.3°C 59.4°F15.2°C 77% 0.9 mph SW1.4 kmh SW 4.0 mph6.4 kmh 29.71 in1006.1 mb 0.00 in0.0 mm 0.00 in0.0 mm 0.00 in0.0 mm
11:37 PM 66.7°F19.3°C 59.4°F15.2°C 77% 0.9 mph SSW1.4 kmh SSW 2.9 mph4.7 kmh 29.71 in1006.1 mb 0.00 in0.0 mm 0.00 in0.0 mm 0.00 in0.0 mm
11:47 PM 66.7°F19.3°C 59.4°F15.2°C 77% Calm Calm 2.0 mph3.2 kmh 29.71 in1006.1 mb 0.00 in0.0 mm 0.00 in0.0 mm 0.00 in0.0 mm
11:57 PM 66.7°F19.3°C 59.4°F15.2°C 77% Calm Calm 2.0 mph3.2 kmh 29.71 in1006.1 mb 0.00 in0.0 mm 0.00 in0.0 mm 0.00 in0.0 mm